Latest Coastal Weather Observations for Parndana

IDS60701

Issued at 4:41 pm CDT Monday 8 February 2016 (issued every 10 minutes, with the page automatically refreshed every 10 minutes)

About coastal observations | Map of coastal stations | Coastal observations for SA | Marine services | Other Formats
Station Details ID: 022843 Name: PARNDANA CFS AWS Lat: -35.79 Lon: 137.25 Height: 165.0 m
Data from the previous 72 hours. | See also: Recent months at Parndana
Date/Time
CDT
Temp

°C
Wind Pressure Rain
since 9am
mm
Weather Cloud Vis
km
Sea
Height
m
Swell
Dir
 
Speed
knots
Gust
knots
hPa Trend Height
m
Period
s
Dir
08/04:30pm 22.3 SE 18 23 - - 0.0 - - - - - - -
08/04:00pm 22.1 SSE 17 25 - - 0.0 - - - - - - -
08/03:30pm 23.1 SE 16 22 - - 0.0 - - - - - - -
08/03:00pm 22.3 SSE 16 24 - - 0.0 - - - - - - -
08/02:30pm 21.8 SE 17 24 - - 0.0 - - - - - - -
08/02:00pm 21.9 SE 17 23 - - 0.0 - - - - - - -
08/01:30pm 20.7 SE 17 23 - - 0.0 - - - - - - -
08/01:00pm 20.6 SSE 17 23 - - 0.0 - - - - - - -
08/12:30pm 19.8 SE 16 22 - - 0.0 - - - - - - -
08/12:00pm 19.1 SSE 16 23 - - 0.0 - - - - - - -
08/11:30am 18.2 SSE 17 21 - - 0.0 - - - - - - -
08/11:00am 18.3 SE 17 25 - - 0.0 - - - - - - -
08/10:30am 17.6 SE 15 20 - - 0.0 - - - - - - -
08/10:00am 17.2 SE 14 20 - - 0.0 - - - - - - -
08/09:30am 16.7 SSE 15 19 - - 0.0 - - - - - - -
08/09:00am 16.5 SE 14 18 - - 0.0 - - - - - - -
08/08:30am 16.3 SSE 15 19 - - 0.0 - - - - - - -
08/08:00am 16.1 SSE 15 21 - - 0.0 - - - - - - -
08/07:30am 15.7 SSE 14 19 - - 0.0 - - - - - - -
08/07:00am 15.6 SE 13 18 - - 0.0 - - - - - - -
08/06:30am 15.5 SSE 14 19 - - 0.0 - - - - - - -
08/06:00am 15.4 SSE 12 15 - - 0.0 - - - - - - -
08/05:30am 15.4 SSE 13 17 - - 0.0 - - - - - - -
08/05:00am 15.1 SSE 12 17 - - 0.0 - - - - - - -
08/04:30am 14.9 SE 12 16 - - 0.0 - - - - - - -
08/04:00am 15.1 SE 12 16 - - 0.0 - - - - - - -
08/03:30am 15.4 SSE 14 19 - - 0.0 - - - - - - -
08/03:00am 15.6 SE 12 16 - - 0.0 - - - - - - -
08/02:30am 15.9 SSE 14 20 - - 0.0 - - - - - - -
08/02:00am 16.1 SSE 15 20 - - 0.0 - - - - - - -
08/01:30am 16.2 SSE 12 15 - - 0.0 - - - - - - -
08/01:00am 16.4 SSE 14 18 - - 0.0 - - - - - - -
08/12:30am 16.5 SSE 13 17 - - 0.0 - - - - - - -
08/12:00am 16.6 SSE 13 16 - - 0.0 - - - - - - -
 
Date/Time
CDT
Temp

°C
Wind Pressure Rain
since 9am
mm
Weather Cloud Vis
km
Sea
Height
m
Swell
Dir
 
Speed
knots
Gust
knots
hPa Trend Height
m
Period
s
Dir
07/11:30pm 16.5 SSE 14 18 - - 0.0 - - - - - - -
07/11:00pm 16.6 SSE 13 17 - - 0.0 - - - - - - -
07/10:30pm 16.6 SSE 13 18 - - 0.0 - - - - - - -
07/10:00pm 16.7 SSE 14 19 - - 0.0 - - - - - - -
07/09:30pm 16.9 SSE 13 17 - - 0.0 - - - - - - -
07/09:00pm 17.0 SSE 12 18 - - 0.0 - - - - - - -
07/08:30pm 17.1 SSE 15 19 - - 0.0 - - - - - - -
07/08:00pm 17.5 SSE 16 21 - - 0.0 - - - - - - -
07/07:30pm 18.0 SSE 15 19 - - 0.0 - - - - - - -
07/07:00pm 18.8 SSE 13 18 - - 0.0 - - - - - - -
07/06:30pm 19.3 S 14 18 - - 0.0 - - - - - - -
07/06:00pm 21.3 SSE 12 15 - - 0.0 - - - - - - -
07/05:30pm 21.6 S 11 16 - - 0.0 - - - - - - -
07/05:00pm 22.0 S 11 15 - - 0.0 - - - - - - -
07/04:30pm 22.1 S 11 16 - - 0.0 - - - - - - -
07/04:00pm 22.0 S 11 17 - - 0.0 - - - - - - -
07/03:30pm 22.8 S 10 16 - - 0.0 - - - - - - -
07/03:00pm 22.3 S 12 15 - - 0.0 - - - - - - -
07/02:30pm 22.4 S 10 14 - - 0.0 - - - - - - -
07/02:00pm 23.1 SSE 10 16 - - 0.0 - - - - - - -
07/01:30pm 22.4 SSE 11 16 - - 0.0 - - - - - - -
07/01:00pm 21.7 S 11 16 - - 0.0 - - - - - - -
07/12:30pm 22.0 S 11 17 - - 0.0 - - - - - - -
07/12:00pm 21.4 S 11 15 - - 0.0 - - - - - - -
07/11:30am 20.9 S 11 15 - - 0.0 - - - - - - -
07/11:00am 20.9 S 11 15 - - 0.0 - - - - - - -
07/10:30am 20.6 SSE 10 14 - - 0.0 - - - - - - -
07/10:00am 19.9 SSE 10 14 - - 0.0 - - - - - - -
07/09:30am 19.6 SSE 10 13 - - 0.0 - - - - - - -
07/09:00am 18.9 S 10 14 - - 0.0 - - - - - - -
07/08:30am 17.8 S 10 13 - - 0.0 - - - - - - -
07/08:00am 17.3 SSE 8 11 - - 0.0 - - - - - - -
07/07:30am 16.4 S 8 12 - - 0.0 - - - - - - -
07/07:00am 15.8 SSE 7 8 - - 0.0 - - - - - - -
07/06:30am 15.6 S 6 7 - - 0.0 - - - - - - -
07/06:00am 15.5 SSE 7 9 - - 0.0 - - - - - - -
07/05:30am 15.7 SSE 8 10 - - 0.0 - - - - - - -
07/05:00am 15.9 SSE 8 10 - - 0.0 - - - - - - -
07/04:30am 16.1 SSE 8 9 - - 0.0 - - - - - - -
07/04:00am 16.5 S 9 12 - - 0.0 - - - - - - -
07/03:30am 16.4 S 11 15 - - 0.0 - - - - - - -
07/03:00am 16.0 SSE 8 13 - - 0.0 - - - - - - -
07/02:30am 16.1 SSE 8 11 - - 0.0 - - - - - - -
07/02:00am 16.2 SSE 8 11 - - 0.0 - - - - - - -
07/01:30am 15.7 SSE 6 8 - - 0.0 - - - - - - -
07/01:00am 16.2 SSE 7 11 - - 0.0 - - - - - - -
07/12:30am 16.6 SSE 9 13 - - 0.0 - - - - - - -
07/12:00am 16.9 S 10 15 - - 0.0 - - - - - - -
 
Date/Time
CDT
Temp

°C
Wind Pressure Rain
since 9am
mm
Weather Cloud Vis
km
Sea
Height
m
Swell
Dir
 
Speed
knots
Gust
knots
hPa Trend Height
m
Period
s
Dir
06/11:30pm 17.2 S 12 16 - - 0.0 - - - - - - -
06/11:00pm 17.1 S 12 17 - - 0.0 - - - - - - -
06/10:30pm 17.1 S 11 15 - - 0.0 - - - - - - -
06/10:00pm 17.0 S 11 16 - - 0.0 - - - - - - -
06/09:30pm 16.8 S 13 19 - - 0.0 - - - - - - -
06/09:00pm 17.2 S 12 17 - - 0.0 - - - - - - -
06/08:30pm 17.0 SSW 13 17 - - 0.0 - - - - - - -
06/08:00pm 17.4 S 12 16 - - 0.0 - - - - - - -
06/07:30pm 18.2 S 12 15 - - 0.0 - - - - - - -
06/07:00pm 19.4 S 12 16 - - 0.0 - - - - - - -
06/06:30pm 19.8 S 13 17 - - 0.0 - - - - - - -
06/06:00pm 20.8 S 12 16 - - 0.0 - - - - - - -
06/05:30pm 20.7 S 13 18 - - 0.0 - - - - - - -
06/05:00pm 22.4 S 13 16 - - 0.0 - - - - - - -
06/04:30pm 21.6 S 13 17 - - 0.0 - - - - - - -
06/04:00pm 22.5 S 12 16 - - 0.0 - - - - - - -
06/03:30pm 22.8 S 12 16 - - 0.0 - - - - - - -
06/03:00pm 23.1 S 12 18 - - 0.0 - - - - - - -
06/02:30pm 22.8 S 12 18 - - 0.0 - - - - - - -
06/02:00pm 23.0 S 11 15 - - 0.0 - - - - - - -
06/01:30pm 22.8 S 12 17 - - 0.0 - - - - - - -
06/01:00pm 23.1 S 11 15 - - 0.0 - - - - - - -
06/12:30pm 22.0 SSE 12 15 - - 0.0 - - - - - - -
06/12:00pm 21.6 S 11 14 - - 0.0 - - - - - - -
06/11:30am 21.4 SSW 11 14 - - 0.0 - - - - - - -
06/11:00am 21.4 S 11 16 - - 0.0 - - - - - - -
06/10:30am 20.3 S 11 14 - - 0.0 - - - - - - -
06/10:00am 20.1 SSE 12 15 - - 0.0 - - - - - - -
06/09:30am 19.1 S 11 16 - - 0.0 - - - - - - -
06/09:00am 18.0 S 9 11 - - 0.0 - - - - - - -
06/08:30am 17.4 SSE 8 11 - - 0.0 - - - - - - -
06/08:00am 16.4 SSE 9 13 - - 0.0 - - - - - - -
06/07:30am 16.0 SSE 9 11 - - 0.0 - - - - - - -
06/07:00am 15.6 SSE 8 10 - - 0.0 - - - - - - -
06/06:30am 15.5 SSE 8 11 - - 0.0 - - - - - - -
06/06:00am 15.5 SSE 9 11 - - 0.0 - - - - - - -
06/05:30am 15.4 SSE 9 11 - - 0.0 - - - - - - -
06/05:00am 15.5 SSE 9 13 - - 0.0 - - - - - - -
06/04:30am 15.3 SSE 9 13 - - 0.0 - - - - - - -
06/04:00am 15.0 SSE 8 10 - - 0.0 - - - - - - -
06/03:30am 15.4 SE 9 12 - - 0.0 - - - - - - -
06/03:00am 15.5 SSE 9 13 - - 0.0 - - - - - - -
06/02:30am 15.4 SSE 10 14 - - 0.0 - - - - - - -
06/02:00am 15.4 SE 10 15 - - 0.0 - - - - - - -
06/01:30am 15.4 SE 11 17 - - 0.0 - - - - - - -
06/01:00am 15.0 SSE 14 18 - - 0.0 - - - - - - -
06/12:30am 15.1 SSE 13 18 - - 0.0 - - - - - - -
06/12:00am 15.2 SSE 16 20 - - 0.0 - - - - - - -
 
Date/Time
CDT
Temp

°C
Wind Pressure Rain
since 9am
mm
Weather Cloud Vis
km
Sea
Height
m
Swell
Dir
 
Speed
knots
Gust
knots
hPa Trend Height
m
Period
s
Dir
05/11:30pm 15.3 SSE 15 20 - - 0.0 - - - - - - -
05/11:00pm 15.2 SSE 16 21 - - 0.0 - - - - - - -
05/10:30pm 15.2 SSE 16 20 - - 0.0 - - - - - - -
05/10:00pm 15.4 SSE 15 21 - - 0.0 - - - - - - -
05/09:30pm 15.5 SSE 15 21 - - 0.0 - - - - - - -
05/09:00pm 15.6 SSE 15 21 - - 0.0 - - - - - - -
05/08:30pm 15.7 SSE 15 21 - - 0.0 - - - - - - -
05/08:00pm 16.0 SSE 17 21 - - 0.0 - - - - - - -
05/07:30pm 16.8 SSE 15 19 - - 0.0 - - - - - - -
05/07:00pm 17.7 SSE 15 21 - - 0.0 - - - - - - -
05/06:30pm 18.3 S 15 19 - - 0.0 - - - - - - -
05/06:00pm 18.8 S 16 22 - - 0.0 - - - - - - -
05/05:30pm 19.3 SSE 15 20 - - 0.0 - - - - - - -
05/05:00pm 20.0 S 14 19 - - 0.0 - - - - - - -

Other Formats:

Comma delimited format used in spreadsheet applications
http://www.bom.gov.au/fwo/IDS60701/IDS60701.94807.axf

JavaScript Object Notation format (JSON) in row-major order
http://www.bom.gov.au/fwo/IDS60701/IDS60701.94807.json